sensor_id;sensor_type;location;lat;lon;timestamp;pressure;altitude;pressure_sealevel;temperature;humidity
86173;BME280;76822;46.880;8.642;2024-02-26T00:01:19;94485.78;;;10.99;36.46
86173;BME280;76822;46.880;8.642;2024-02-26T00:04:39;94440.44;;;10.96;37.10
86173;BME280;76822;46.880;8.642;2024-02-26T00:08:00;94462.00;;;11.01;36.06
86173;BME280;76822;46.880;8.642;2024-02-26T00:11:20;94457.16;;;10.98;36.43
86173;BME280;76822;46.880;8.642;2024-02-26T00:14:41;94491.50;;;10.92;37.17
86173;BME280;76822;46.880;8.642;2024-02-26T00:18:01;94457.72;;;10.95;36.10
86173;BME280;76822;46.880;8.642;2024-02-26T00:21:22;94462.06;;;10.91;36.74
86173;BME280;76822;46.880;8.642;2024-02-26T00:24:42;94442.63;;;10.89;36.59
86173;BME280;76822;46.880;8.642;2024-02-26T00:28:03;94502.56;;;10.96;36.60
86173;BME280;76822;46.880;8.642;2024-02-26T00:31:23;94458.28;;;10.92;37.04
86173;BME280;76822;46.880;8.642;2024-02-26T00:34:44;94471.78;;;10.92;36.88
86173;BME280;76822;46.880;8.642;2024-02-26T00:38:04;94408.31;;;10.94;36.70
86173;BME280;76822;46.880;8.642;2024-02-26T00:41:24;94484.16;;;11.03;36.87
86173;BME280;76822;46.880;8.642;2024-02-26T00:44:45;94460.38;;;11.00;37.01
86173;BME280;76822;46.880;8.642;2024-02-26T00:48:05;94428.53;;;11.02;36.78
86173;BME280;76822;46.880;8.642;2024-02-26T00:51:27;94441.22;;;11.02;37.05
86173;BME280;76822;46.880;8.642;2024-02-26T00:54:47;94425.78;;;11.07;37.25
86173;BME280;76822;46.880;8.642;2024-02-26T00:58:09;94423.38;;;11.06;37.52
86173;BME280;76822;46.880;8.642;2024-02-26T01:01:29;94466.88;;;11.04;37.91
86173;BME280;76822;46.880;8.642;2024-02-26T01:04:50;94435.00;;;11.01;37.85
86173;BME280;76822;46.880;8.642;2024-02-26T01:08:10;94403.41;;;11.02;38.25
86173;BME280;76822;46.880;8.642;2024-02-26T01:11:30;94434.13;;;11.11;38.17
86173;BME280;76822;46.880;8.642;2024-02-26T01:14:50;94483.63;;;11.01;38.89
86173;BME280;76822;46.880;8.642;2024-02-26T01:18:12;94464.16;;;11.04;38.79
86173;BME280;76822;46.880;8.642;2024-02-26T01:21:32;94450.66;;;11.04;38.86
86173;BME280;76822;46.880;8.642;2024-02-26T01:24:53;94447.44;;;11.02;39.06
86173;BME280;76822;46.880;8.642;2024-02-26T01:28:13;94437.16;;;10.99;38.68
86173;BME280;76822;46.880;8.642;2024-02-26T01:31:33;94431.44;;;11.11;38.96
86173;BME280;76822;46.880;8.642;2024-02-26T01:34:54;94444.41;;;11.09;39.25
86173;BME280;76822;46.880;8.642;2024-02-26T01:38:14;94445.16;;;11.19;38.05
86173;BME280;76822;46.880;8.642;2024-02-26T01:41:35;94411.19;;;11.13;38.29
86173;BME280;76822;46.880;8.642;2024-02-26T01:44:55;94449.53;;;11.10;38.13
86173;BME280;76822;46.880;8.642;2024-02-26T01:48:16;94422.75;;;11.19;38.09
86173;BME280;76822;46.880;8.642;2024-02-26T01:51:38;94426.84;;;11.11;38.85
86173;BME280;76822;46.880;8.642;2024-02-26T01:55:01;94424.97;;;11.07;38.49
86173;BME280;76822;46.880;8.642;2024-02-26T01:58:23;94427.97;;;11.05;39.41
86173;BME280;76822;46.880;8.642;2024-02-26T02:01:44;94419.28;;;11.08;39.08
86173;BME280;76822;46.880;8.642;2024-02-26T02:05:08;94416.59;;;11.08;39.62
86173;BME280;76822;46.880;8.642;2024-02-26T02:08:29;94410.16;;;11.04;39.42
86173;BME280;76822;46.880;8.642;2024-02-26T02:11:50;94419.06;;;11.05;39.39
86173;BME280;76822;46.880;8.642;2024-02-26T02:15:10;94420.38;;;11.07;38.88
86173;BME280;76822;46.880;8.642;2024-02-26T02:18:31;94415.28;;;11.06;39.08
86173;BME280;76822;46.880;8.642;2024-02-26T02:21:51;94414.16;;;11.07;39.52
86173;BME280;76822;46.880;8.642;2024-02-26T02:25:11;94385.28;;;11.07;39.72
86173;BME280;76822;46.880;8.642;2024-02-26T02:28:32;94404.16;;;11.07;39.63
86173;BME280;76822;46.880;8.642;2024-02-26T02:31:53;94397.94;;;11.12;38.64
86173;BME280;76822;46.880;8.642;2024-02-26T02:35:14;94381.75;;;11.12;38.59
86173;BME280;76822;46.880;8.642;2024-02-26T02:38:34;94388.75;;;11.13;38.77
86173;BME280;76822;46.880;8.642;2024-02-26T02:41:54;94384.13;;;11.18;38.16
86173;BME280;76822;46.880;8.642;2024-02-26T02:45:15;94369.47;;;11.24;38.02
86173;BME280;76822;46.880;8.642;2024-02-26T02:48:35;94380.53;;;11.28;37.60
86173;BME280;76822;46.880;8.642;2024-02-26T02:51:55;94363.25;;;11.29;37.55
86173;BME280;76822;46.880;8.642;2024-02-26T02:55:18;94351.34;;;11.30;38.13
86173;BME280;76822;46.880;8.642;2024-02-26T02:58:38;94376.47;;;11.30;37.82
86173;BME280;76822;46.880;8.642;2024-02-26T03:01:58;94375.94;;;11.28;37.41
86173;BME280;76822;46.880;8.642;2024-02-26T03:05:19;94362.16;;;11.30;37.44
86173;BME280;76822;46.880;8.642;2024-02-26T03:08:39;94362.97;;;11.30;37.50
86173;BME280;76822;46.880;8.642;2024-02-26T03:12:01;94378.66;;;11.28;38.14
86173;BME280;76822;46.880;8.642;2024-02-26T03:15:22;94367.78;;;11.33;37.29
86173;BME280;76822;46.880;8.642;2024-02-26T03:18:42;94371.56;;;11.37;37.08
86173;BME280;76822;46.880;8.642;2024-02-26T03:22:03;94352.38;;;11.34;37.22
86173;BME280;76822;46.880;8.642;2024-02-26T03:25:23;94363.66;;;11.41;37.38
86173;BME280;76822;46.880;8.642;2024-02-26T03:28:43;94357.22;;;11.37;37.24
86173;BME280;76822;46.880;8.642;2024-02-26T03:32:05;94354.47;;;11.42;36.57
86173;BME280;76822;46.880;8.642;2024-02-26T03:35:25;94327.13;;;11.49;36.92
86173;BME280;76822;46.880;8.642;2024-02-26T03:38:45;94363.03;;;11.54;36.74
86173;BME280;76822;46.880;8.642;2024-02-26T03:42:06;94348.63;;;11.59;36.35
86173;BME280;76822;46.880;8.642;2024-02-26T03:45:26;94364.84;;;11.59;36.35
86173;BME280;76822;46.880;8.642;2024-02-26T03:48:47;94341.16;;;11.51;36.42
86173;BME280;76822;46.880;8.642;2024-02-26T03:52:07;94373.06;;;11.49;36.54
86173;BME280;76822;46.880;8.642;2024-02-26T03:55:27;94341.75;;;11.48;36.79
86173;BME280;76822;46.880;8.642;2024-02-26T03:58:48;94376.34;;;11.46;37.12
86173;BME280;76822;46.880;8.642;2024-02-26T04:02:08;94373.38;;;11.42;37.07
86173;BME280;76822;46.880;8.642;2024-02-26T04:05:29;94368.50;;;11.44;37.09
86173;BME280;76822;46.880;8.642;2024-02-26T04:08:50;94374.00;;;11.34;37.67
86173;BME280;76822;46.880;8.642;2024-02-26T04:12:10;94367.97;;;11.42;37.23
86173;BME280;76822;46.880;8.642;2024-02-26T04:15:31;94387.69;;;11.43;37.30
86173;BME280;76822;46.880;8.642;2024-02-26T04:18:52;94366.91;;;11.43;37.20
86173;BME280;76822;46.880;8.642;2024-02-26T04:22:13;94354.75;;;11.41;37.02
86173;BME280;76822;46.880;8.642;2024-02-26T04:25:34;94392.06;;;11.38;37.57
86173;BME280;76822;46.880;8.642;2024-02-26T04:28:54;94371.00;;;11.35;37.46
86173;BME280;76822;46.880;8.642;2024-02-26T04:32:14;94344.56;;;11.32;37.48
86173;BME280;76822;46.880;8.642;2024-02-26T04:35:35;94366.47;;;11.31;37.36
86173;BME280;76822;46.880;8.642;2024-02-26T04:38:55;94363.78;;;11.31;36.85
86173;BME280;76822;46.880;8.642;2024-02-26T04:42:16;94386.16;;;11.31;37.01
86173;BME280;76822;46.880;8.642;2024-02-26T04:45:36;94367.22;;;11.36;37.24
86173;BME280;76822;46.880;8.642;2024-02-26T04:48:57;94382.31;;;11.43;36.33
86173;BME280;76822;46.880;8.642;2024-02-26T04:52:18;94382.34;;;11.37;37.04
86173;BME280;76822;46.880;8.642;2024-02-26T04:55:39;94391.00;;;11.40;36.20
86173;BME280;76822;46.880;8.642;2024-02-26T04:58:59;94392.56;;;11.41;36.34
86173;BME280;76822;46.880;8.642;2024-02-26T05:02:20;94408.78;;;11.46;36.52
86173;BME280;76822;46.880;8.642;2024-02-26T05:05:40;94381.22;;;11.44;36.67
86173;BME280;76822;46.880;8.642;2024-02-26T05:09:01;94384.19;;;11.42;36.44
86173;BME280;76822;46.880;8.642;2024-02-26T05:12:21;94407.97;;;11.45;36.36
86173;BME280;76822;46.880;8.642;2024-02-26T05:15:41;94384.97;;;11.48;36.11
86173;BME280;76822;46.880;8.642;2024-02-26T05:19:02;94375.53;;;11.45;36.31
86173;BME280;76822;46.880;8.642;2024-02-26T05:22:23;94393.84;;;11.53;36.12
86173;BME280;76822;46.880;8.642;2024-02-26T05:25:44;94371.94;;;11.55;36.07
86173;BME280;76822;46.880;8.642;2024-02-26T05:29:07;94391.19;;;11.48;35.75
86173;BME280;76822;46.880;8.642;2024-02-26T05:32:27;94373.59;;;11.51;36.33
86173;BME280;76822;46.880;8.642;2024-02-26T05:35:48;94364.94;;;11.49;35.68
86173;BME280;76822;46.880;8.642;2024-02-26T05:39:08;94384.06;;;11.57;35.88
86173;BME280;76822;46.880;8.642;2024-02-26T05:42:31;94382.69;;;11.60;35.18
86173;BME280;76822;46.880;8.642;2024-02-26T05:45:51;94373.31;;;11.52;35.84
86173;BME280;76822;46.880;8.642;2024-02-26T05:49:12;94387.38;;;11.49;35.65
86173;BME280;76822;46.880;8.642;2024-02-26T05:52:32;94389.00;;;11.50;35.90
86173;BME280;76822;46.880;8.642;2024-02-26T05:55:53;94368.50;;;11.44;35.87
86173;BME280;76822;46.880;8.642;2024-02-26T05:59:13;94389.31;;;11.44;36.38
86173;BME280;76822;46.880;8.642;2024-02-26T06:02:35;94395.34;;;11.35;36.13
86173;BME280;76822;46.880;8.642;2024-02-26T06:05:55;94401.50;;;11.41;36.15
86173;BME280;76822;46.880;8.642;2024-02-26T06:09:16;94394.44;;;11.45;36.18
86173;BME280;76822;46.880;8.642;2024-02-26T06:12:36;94406.00;;;11.51;36.06
86173;BME280;76822;46.880;8.642;2024-02-26T06:15:57;94422.81;;;11.48;36.20
86173;BME280;76822;46.880;8.642;2024-02-26T06:19:17;94426.06;;;11.45;36.37
86173;BME280;76822;46.880;8.642;2024-02-26T06:22:40;94414.16;;;11.46;36.82
86173;BME280;76822;46.880;8.642;2024-02-26T06:26:00;94415.72;;;11.52;36.00
86173;BME280;76822;46.880;8.642;2024-02-26T06:29:21;94413.03;;;11.52;36.11
86173;BME280;76822;46.880;8.642;2024-02-26T06:32:41;94402.22;;;11.52;36.12
86173;BME280;76822;46.880;8.642;2024-02-26T06:36:02;94399.00;;;11.50;35.68
86173;BME280;76822;46.880;8.642;2024-02-26T06:39:22;94402.00;;;11.48;36.20
86173;BME280;76822;46.880;8.642;2024-02-26T06:42:42;94407.06;;;11.55;36.61
86173;BME280;76822;46.880;8.642;2024-02-26T06:46:05;94417.91;;;11.50;36.30
86173;BME280;76822;46.880;8.642;2024-02-26T06:49:27;94423.03;;;11.51;36.83
86173;BME280;76822;46.880;8.642;2024-02-26T06:52:47;94426.81;;;11.55;36.17
86173;BME280;76822;46.880;8.642;2024-02-26T06:56:08;94414.09;;;11.56;36.56
86173;BME280;76822;46.880;8.642;2024-02-26T06:59:28;94400.59;;;11.56;36.06
86173;BME280;76822;46.880;8.642;2024-02-26T07:02:48;94406.50;;;11.58;36.43
86173;BME280;76822;46.880;8.642;2024-02-26T07:06:09;94425.13;;;11.59;35.94
86173;BME280;76822;46.880;8.642;2024-02-26T07:09:29;94420.72;;;11.68;35.80
86173;BME280;76822;46.880;8.642;2024-02-26T07:12:49;94436.19;;;11.63;36.23
86173;BME280;76822;46.880;8.642;2024-02-26T07:16:10;94478.84;;;11.66;35.71
86173;BME280;76822;46.880;8.642;2024-02-26T07:19:30;94457.22;;;11.66;35.59
86173;BME280;76822;46.880;8.642;2024-02-26T07:22:51;94449.09;;;11.71;36.04
86173;BME280;76822;46.880;8.642;2024-02-26T07:26:11;94457.75;;;11.73;35.90
86173;BME280;76822;46.880;8.642;2024-02-26T07:29:32;94435.81;;;11.80;35.69
86173;BME280;76822;46.880;8.642;2024-02-26T07:32:53;94449.81;;;11.87;35.38
86173;BME280;76822;46.880;8.642;2024-02-26T07:36:13;94439.50;;;11.89;35.23
86173;BME280;76822;46.880;8.642;2024-02-26T07:39:34;94480.75;;;12.04;35.10
86173;BME280;76822;46.880;8.642;2024-02-26T07:42:54;94422.59;;;12.02;35.31
86173;BME280;76822;46.880;8.642;2024-02-26T07:46:14;94441.19;;;12.08;35.06
86173;BME280;76822;46.880;8.642;2024-02-26T07:49:35;94462.09;;;12.03;35.15
86173;BME280;76822;46.880;8.642;2024-02-26T07:52:55;94421.25;;;12.04;35.26
86173;BME280;76822;46.880;8.642;2024-02-26T07:56:15;94443.16;;;12.03;35.30
86173;BME280;76822;46.880;8.642;2024-02-26T07:59:37;94436.94;;;12.02;35.62
86173;BME280;76822;46.880;8.642;2024-02-26T08:02:57;94451.56;;;12.01;36.04
86173;BME280;76822;46.880;8.642;2024-02-26T08:06:18;94437.41;;;12.09;36.10
86173;BME280;76822;46.880;8.642;2024-02-26T08:09:38;94442.25;;;12.12;36.05
86173;BME280;76822;46.880;8.642;2024-02-26T08:12:59;94467.63;;;12.17;36.00
86173;BME280;76822;46.880;8.642;2024-02-26T08:20:01;94432.84;;;23.04;40.16
86173;BME280;76822;46.880;8.642;2024-02-26T08:23:22;94388.78;;;24.89;35.51
86173;BME280;76822;46.880;8.642;2024-02-26T08:26:43;94399.13;;;29.12;27.78
86173;BME280;76822;46.880;8.642;2024-02-26T08:30:03;94376.88;;;25.87;31.38
86173;BME280;76822;46.880;8.642;2024-02-26T08:33:23;94416.16;;;25.99;31.33
86173;BME280;76822;46.880;8.642;2024-02-26T08:36:44;94417.06;;;28.17;28.53
86173;BME280;76822;46.880;8.642;2024-02-26T08:40:05;94412.59;;;28.02;28.36
86173;BME280;76822;46.880;8.642;2024-02-26T08:43:25;94401.53;;;25.43;31.54
86173;BME280;76822;46.880;8.642;2024-02-26T08:46:46;94396.88;;;24.36;33.30
86173;BME280;76822;46.880;8.642;2024-02-26T08:50:06;94383.94;;;24.82;32.83
86173;BME280;76822;46.880;8.642;2024-02-26T08:53:27;94392.38;;;30.92;25.15
86173;BME280;76822;46.880;8.642;2024-02-26T08:56:47;94385.13;;;26.13;30.02
86173;BME280;76822;46.880;8.642;2024-02-26T09:00:07;94391.38;;;27.14;29.12
86173;BME280;76822;46.880;8.642;2024-02-26T09:03:28;94418.84;;;28.68;28.03
86173;BME280;76822;46.880;8.642;2024-02-26T09:06:48;94435.13;;;31.37;24.21
86173;BME280;76822;46.880;8.642;2024-02-26T09:10:09;94428.03;;;30.31;25.54
86173;BME280;76822;46.880;8.642;2024-02-26T09:13:30;94409.03;;;29.06;26.98
86173;BME280;76822;46.880;8.642;2024-02-26T09:16:50;94427.34;;;26.73;29.76
86173;BME280;76822;46.880;8.642;2024-02-26T09:20:12;94404.34;;;24.36;33.58
86173;BME280;76822;46.880;8.642;2024-02-26T09:23:33;94405.53;;;23.61;34.92
86173;BME280;76822;46.880;8.642;2024-02-26T09:26:55;94446.78;;;23.26;35.83
86173;BME280;76822;46.880;8.642;2024-02-26T09:30:15;94398.47;;;22.97;36.36
86173;BME280;76822;46.880;8.642;2024-02-26T09:33:36;94425.38;;;22.88;36.67
86173;BME280;76822;46.880;8.642;2024-02-26T09:36:56;94412.97;;;22.79;36.85
86173;BME280;76822;46.880;8.642;2024-02-26T09:40:16;94440.69;;;22.74;37.02
86173;BME280;76822;46.880;8.642;2024-02-26T09:43:37;94458.03;;;22.74;37.02
86173;BME280;76822;46.880;8.642;2024-02-26T09:46:59;94467.22;;;22.66;37.26
86173;BME280;76822;46.880;8.642;2024-02-26T09:50:20;94484.50;;;22.79;37.65
86173;BME280;76822;46.880;8.642;2024-02-26T09:53:43;94498.19;;;22.91;37.81
86173;BME280;76822;46.880;8.642;2024-02-26T09:57:04;94472.53;;;23.02;38.08
86173;BME280;76822;46.880;8.642;2024-02-26T10:00:27;94477.16;;;23.30;38.21
86173;BME280;76822;46.880;8.642;2024-02-26T10:34:48;94525.72;;;24.20;39.59
86173;BME280;76822;46.880;8.642;2024-02-26T10:38:09;94522.72;;;23.90;39.30
86173;BME280;76822;46.880;8.642;2024-02-26T10:41:29;94543.06;;;24.36;nan
86173;BME280;76822;46.880;8.642;2024-02-26T10:48:35;94526.94;;;25.38;40.00
86173;BME280;76822;46.880;8.642;2024-02-26T10:51:56;94516.78;;;25.46;43.41
86173;BME280;76822;46.880;8.642;2024-02-26T11:01:54;94512.41;;;26.17;36.12
86173;BME280;76822;46.880;8.642;2024-02-26T11:08:37;94521.34;;;18.15;27.09
86173;BME280;76822;46.880;8.642;2024-02-26T11:11:58;94508.94;;;16.70;30.14
86173;BME280;76822;46.880;8.642;2024-02-26T11:15:19;94499.41;;;15.92;29.97
86173;BME280;76822;46.880;8.642;2024-02-26T11:18:40;94552.41;;;15.72;30.81
86173;BME280;76822;46.880;8.642;2024-02-26T11:22:02;94522.84;;;15.15;31.35
86173;BME280;76822;46.880;8.642;2024-02-26T11:25:23;94520.31;;;14.78;31.46
86173;BME280;76822;46.880;8.642;2024-02-26T11:28:44;94529.97;;;14.98;31.59
86173;BME280;76822;46.880;8.642;2024-02-26T11:32:05;94485.91;;;14.60;32.04
86173;BME280;76822;46.880;8.642;2024-02-26T11:35:26;94482.69;;;15.12;31.21
86173;BME280;76822;46.880;8.642;2024-02-26T11:38:48;94501.78;;;14.80;30.88
86173;BME280;76822;46.880;8.642;2024-02-26T11:42:15;94490.44;;;15.05;31.82
86173;BME280;76822;46.880;8.642;2024-02-26T11:49:04;94545.38;;;15.93;30.05
86173;BME280;76822;46.880;8.642;2024-02-26T11:56:42;94487.41;;;16.37;29.06
86173;BME280;76822;46.880;8.642;2024-02-26T12:03:28;94489.91;;;16.78;29.04
86173;BME280;76822;46.880;8.642;2024-02-26T12:06:55;94466.66;;;16.81;29.09
86173;BME280;76822;46.880;8.642;2024-02-26T12:10:27;94470.06;;;16.55;28.95
86173;BME280;76822;46.880;8.642;2024-02-26T12:13:49;94490.38;;;15.82;29.94
86173;BME280;76822;46.880;8.642;2024-02-26T12:17:19;94490.63;;;16.17;30.05
86173;BME280;76822;46.880;8.642;2024-02-26T12:20:40;94483.75;;;15.75;29.61
86173;BME280;76822;46.880;8.642;2024-02-26T12:24:11;94487.19;;;15.80;30.30
86173;BME280;76822;46.880;8.642;2024-02-26T12:27:32;94478.53;;;15.78;29.93
86173;BME280;76822;46.880;8.642;2024-02-26T12:30:53;94473.50;;;15.72;30.11
86173;BME280;76822;46.880;8.642;2024-02-26T12:34:13;94465.88;;;15.82;29.87
86173;BME280;76822;46.880;8.642;2024-02-26T12:37:34;94457.00;;;15.68;29.74
86173;BME280;76822;46.880;8.642;2024-02-26T12:40:57;94450.59;;;16.17;29.54
86173;BME280;76822;46.880;8.642;2024-02-26T12:44:24;94473.56;;;16.03;29.80
86173;BME280;76822;46.880;8.642;2024-02-26T12:47:45;94487.22;;;15.53;30.20
86173;BME280;76822;46.880;8.642;2024-02-26T12:51:07;94487.78;;;15.55;29.66
86173;BME280;76822;46.880;8.642;2024-02-26T12:54:31;94481.53;;;15.27;30.07
86173;BME280;76822;46.880;8.642;2024-02-26T12:57:53;94473.69;;;15.39;31.19
86173;BME280;76822;46.880;8.642;2024-02-26T13:01:16;94478.22;;;15.30;30.40
86173;BME280;76822;46.880;8.642;2024-02-26T13:04:38;94492.44;;;15.13;30.17
86173;BME280;76822;46.880;8.642;2024-02-26T13:07:59;94470.41;;;15.01;29.30
86173;BME280;76822;46.880;8.642;2024-02-26T13:11:20;94480.69;;;15.40;30.78
86173;BME280;76822;46.880;8.642;2024-02-26T13:14:40;94484.03;;;15.65;30.42
86173;BME280;76822;46.880;8.642;2024-02-26T13:18:12;94472.47;;;15.81;29.36
86173;BME280;76822;46.880;8.642;2024-02-26T13:21:33;94450.81;;;16.21;29.27
86173;BME280;76822;46.880;8.642;2024-02-26T13:24:55;94460.06;;;16.20;28.54
86173;BME280;76822;46.880;8.642;2024-02-26T13:28:17;94475.59;;;16.19;29.96
86173;BME280;76822;46.880;8.642;2024-02-26T13:31:39;94467.75;;;16.18;30.14
86173;BME280;76822;46.880;8.642;2024-02-26T13:35:11;94467.81;;;16.04;29.75
86173;BME280;76822;46.880;8.642;2024-02-26T13:38:31;94467.69;;;15.51;29.65
86173;BME280;76822;46.880;8.642;2024-02-26T13:41:52;94468.63;;;15.33;30.48
86173;BME280;76822;46.880;8.642;2024-02-26T13:45:13;94470.00;;;15.22;29.88
86173;BME280;76822;46.880;8.642;2024-02-26T13:48:33;94465.88;;;15.10;29.97
86173;BME280;76822;46.880;8.642;2024-02-26T13:51:54;94468.84;;;15.23;30.65
86173;BME280;76822;46.880;8.642;2024-02-26T13:55:14;94478.63;;;15.24;30.31
86173;BME280;76822;46.880;8.642;2024-02-26T13:58:34;94483.66;;;15.17;29.91
86173;BME280;76822;46.880;8.642;2024-02-26T14:01:55;94502.19;;;15.14;30.42
86173;BME280;76822;46.880;8.642;2024-02-26T14:05:16;94493.63;;;15.35;30.25
86173;BME280;76822;46.880;8.642;2024-02-26T14:08:36;94491.22;;;15.20;29.80
86173;BME280;76822;46.880;8.642;2024-02-26T14:12:00;94482.38;;;15.14;29.42
86173;BME280;76822;46.880;8.642;2024-02-26T14:15:21;94490.59;;;15.23;30.08
86173;BME280;76822;46.880;8.642;2024-02-26T14:18:41;94505.94;;;15.19;29.99
86173;BME280;76822;46.880;8.642;2024-02-26T14:22:04;94501.59;;;14.90;30.10
86173;BME280;76822;46.880;8.642;2024-02-26T14:25:24;94507.34;;;14.61;30.10
86173;BME280;76822;46.880;8.642;2024-02-26T14:28:45;94501.38;;;14.46;30.78
86173;BME280;76822;46.880;8.642;2024-02-26T14:32:06;94513.34;;;14.45;30.56
86173;BME280;76822;46.880;8.642;2024-02-26T14:35:27;94505.78;;;14.42;30.70
86173;BME280;76822;46.880;8.642;2024-02-26T14:38:48;94511.81;;;14.38;30.99
86173;BME280;76822;46.880;8.642;2024-02-26T14:42:08;94519.22;;;14.33;31.25
86173;BME280;76822;46.880;8.642;2024-02-26T14:45:29;94531.38;;;14.35;30.74
86173;BME280;76822;46.880;8.642;2024-02-26T14:48:49;94534.59;;;14.37;31.25
86173;BME280;76822;46.880;8.642;2024-02-26T14:52:10;94533.03;;;14.18;30.51
86173;BME280;76822;46.880;8.642;2024-02-26T14:55:30;94534.47;;;13.96;31.18
86173;BME280;76822;46.880;8.642;2024-02-26T14:58:50;94529.03;;;13.96;31.27
86173;BME280;76822;46.880;8.642;2024-02-26T15:02:11;94533.03;;;13.85;31.45
86173;BME280;76822;46.880;8.642;2024-02-26T15:05:32;94522.38;;;13.89;32.06
86173;BME280;76822;46.880;8.642;2024-02-26T15:08:52;94537.13;;;13.83;31.54
86173;BME280;76822;46.880;8.642;2024-02-26T15:12:13;94538.66;;;13.70;31.75
86173;BME280;76822;46.880;8.642;2024-02-26T15:15:33;94553.25;;;13.55;31.45
86173;BME280;76822;46.880;8.642;2024-02-26T15:18:54;94549.50;;;13.51;31.94
86173;BME280;76822;46.880;8.642;2024-02-26T15:22:14;94546.34;;;13.44;32.10
86173;BME280;76822;46.880;8.642;2024-02-26T15:25:35;94553.53;;;13.35;32.47
86173;BME280;76822;46.880;8.642;2024-02-26T15:28:56;94568.63;;;13.41;31.70
86173;BME280;76822;46.880;8.642;2024-02-26T15:32:16;94571.63;;;13.40;31.76
86173;BME280;76822;46.880;8.642;2024-02-26T15:35:36;94579.81;;;13.35;31.83
86173;BME280;76822;46.880;8.642;2024-02-26T15:38:57;94587.19;;;13.29;32.55
86173;BME280;76822;46.880;8.642;2024-02-26T15:42:18;94578.84;;;13.25;32.63
86173;BME280;76822;46.880;8.642;2024-02-26T15:45:39;94592.34;;;13.31;32.48
86173;BME280;76822;46.880;8.642;2024-02-26T15:48:59;94606.75;;;13.26;32.50
86173;BME280;76822;46.880;8.642;2024-02-26T15:52:20;94598.75;;;13.16;32.84
86173;BME280;76822;46.880;8.642;2024-02-26T15:55:41;94603.09;;;13.12;32.94
86173;BME280;76822;46.880;8.642;2024-02-26T15:59:03;94607.47;;;13.08;32.86
86173;BME280;76822;46.880;8.642;2024-02-26T16:02:23;94607.75;;;13.06;33.05
86173;BME280;76822;46.880;8.642;2024-02-26T16:05:44;94606.66;;;13.07;32.49
86173;BME280;76822;46.880;8.642;2024-02-26T16:09:04;94622.69;;;13.04;32.36
86173;BME280;76822;46.880;8.642;2024-02-26T16:12:37;94611.28;;;13.07;31.84
86173;BME280;76822;46.880;8.642;2024-02-26T16:16:06;94593.13;;;13.07;32.01
86173;BME280;76822;46.880;8.642;2024-02-26T16:19:28;94607.47;;;13.08;31.51
86173;BME280;76822;46.880;8.642;2024-02-26T16:22:49;94606.88;;;13.11;31.31
86173;BME280;76822;46.880;8.642;2024-02-26T16:26:09;94613.13;;;13.11;31.34
86173;BME280;76822;46.880;8.642;2024-02-26T16:29:30;94605.84;;;13.07;32.25
86173;BME280;76822;46.880;8.642;2024-02-26T16:32:50;94605.97;;;12.97;32.25
86173;BME280;76822;46.880;8.642;2024-02-26T16:36:10;94602.72;;;12.95;32.21
86173;BME280;76822;46.880;8.642;2024-02-26T16:39:36;94608.75;;;12.92;32.16
86173;BME280;76822;46.880;8.642;2024-02-26T16:42:56;94606.34;;;12.85;32.48
86173;BME280;76822;46.880;8.642;2024-02-26T16:46:17;94606.88;;;12.87;32.14
86173;BME280;76822;46.880;8.642;2024-02-26T16:49:38;94620.13;;;12.88;32.09
86173;BME280;76822;46.880;8.642;2024-02-26T16:52:59;94617.16;;;12.90;32.20
86173;BME280;76822;46.880;8.642;2024-02-26T16:56:19;94619.34;;;12.88;32.43
86173;BME280;76822;46.880;8.642;2024-02-26T16:59:39;94630.03;;;12.74;33.45
86173;BME280;76822;46.880;8.642;2024-02-26T17:03:00;94618.94;;;12.76;32.75
86173;BME280;76822;46.880;8.642;2024-02-26T17:06:20;94632.78;;;12.69;33.18
86173;BME280;76822;46.880;8.642;2024-02-26T17:09:44;94613.88;;;12.64;33.40
86173;BME280;76822;46.880;8.642;2024-02-26T17:13:04;94622.84;;;12.60;33.13
86173;BME280;76822;46.880;8.642;2024-02-26T17:16:25;94614.84;;;12.49;34.44
86173;BME280;76822;46.880;8.642;2024-02-26T17:19:45;94610.81;;;12.42;35.88
86173;BME280;76822;46.880;8.642;2024-02-26T17:23:06;94614.78;;;12.21;36.44
86173;BME280;76822;46.880;8.642;2024-02-26T17:26:26;94620.25;;;12.10;36.39
86173;BME280;76822;46.880;8.642;2024-02-26T17:29:47;94624.84;;;12.15;35.80
86173;BME280;76822;46.880;8.642;2024-02-26T17:33:08;94611.06;;;12.11;34.74
86173;BME280;76822;46.880;8.642;2024-02-26T17:36:28;94607.53;;;12.16;34.60
86173;BME280;76822;46.880;8.642;2024-02-26T17:39:48;94624.81;;;12.20;34.59
86173;BME280;76822;46.880;8.642;2024-02-26T17:43:09;94624.81;;;12.20;34.64
86173;BME280;76822;46.880;8.642;2024-02-26T17:46:29;94621.84;;;12.17;35.16
86173;BME280;76822;46.880;8.642;2024-02-26T17:49:50;94617.28;;;12.12;34.18
86173;BME280;76822;46.880;8.642;2024-02-26T17:53:10;94614.94;;;12.34;33.46
86173;BME280;76822;46.880;8.642;2024-02-26T17:56:34;94618.56;;;12.54;32.27
86173;BME280;76822;46.880;8.642;2024-02-26T17:59:55;94653.22;;;12.57;33.06
86173;BME280;76822;46.880;8.642;2024-02-26T18:03:15;94646.09;;;12.32;33.73
86173;BME280;76822;46.880;8.642;2024-02-26T18:06:38;94664.66;;;12.48;32.40
86173;BME280;76822;46.880;8.642;2024-02-26T18:09:59;94631.88;;;12.50;32.17
86173;BME280;76822;46.880;8.642;2024-02-26T18:13:21;94634.44;;;12.65;31.54
86173;BME280;76822;46.880;8.642;2024-02-26T18:16:41;94678.31;;;12.67;32.03
86173;BME280;76822;46.880;8.642;2024-02-26T18:20:03;94680.81;;;12.59;32.67
86173;BME280;76822;46.880;8.642;2024-02-26T18:23:24;94656.94;;;12.61;31.96
86173;BME280;76822;46.880;8.642;2024-02-26T18:26:45;94672.44;;;12.55;32.42
86173;BME280;76822;46.880;8.642;2024-02-26T18:30:05;94672.16;;;12.57;32.25
86173;BME280;76822;46.880;8.642;2024-02-26T18:33:26;94682.25;;;12.46;32.59
86173;BME280;76822;46.880;8.642;2024-02-26T18:36:46;94689.44;;;12.61;31.83
86173;BME280;76822;46.880;8.642;2024-02-26T18:40:07;94674.66;;;12.48;32.77
86173;BME280;76822;46.880;8.642;2024-02-26T18:43:28;94682.41;;;12.60;32.39